createdAt,value
2019-05-26T00:00:00.742Z,367.80
2019-05-26T00:05:05.853Z,353.80
2019-05-26T00:10:11.025Z,293.20
2019-05-26T00:15:16.020Z,215.30
2019-05-26T00:20:21.115Z,148.30
2019-05-26T00:25:27.167Z,106.50
2019-05-26T00:30:32.222Z,76.95
2019-05-26T00:35:37.500Z,68.60
2019-05-26T00:40:43.451Z,51.00
2019-05-26T00:45:48.590Z,45.80
2019-05-26T00:50:53.850Z,149.10
2019-05-26T00:55:58.886Z,331.45
2019-05-26T01:01:03.932Z,601.50
2019-05-26T01:06:09.000Z,571.20
2019-05-26T01:11:14.147Z,781.90
2019-05-26T01:16:19.190Z,897.50
2019-05-26T01:21:24.232Z,985.70
2019-05-26T01:26:29.285Z,921.20
2019-05-26T01:31:34.340Z,864.00
2019-05-26T01:36:39.493Z,798.10
2019-05-26T01:41:44.538Z,770.50
2019-05-26T01:46:49.627Z,684.20
2019-05-26T01:51:54.647Z,570.90
2019-05-26T01:56:59.685Z,530.40
2019-05-26T02:02:04.742Z,388.85
2019-05-26T02:07:09.799Z,349.80
2019-05-26T02:12:14.824Z,241.30
2019-05-26T02:17:19.868Z,211.70
2019-05-26T02:22:24.932Z,151.20
2019-05-26T02:27:29.984Z,103.00
2019-05-26T02:32:35.127Z,71.60
2019-05-26T02:37:40.166Z,50.55
2019-05-26T02:42:45.242Z,67.50
2019-05-26T02:47:50.238Z,35.90
2019-05-26T02:52:55.429Z,36.70
2019-05-26T02:58:00.471Z,27.90
2019-05-26T03:03:05.624Z,27.30
2019-05-26T03:08:10.684Z,25.80
2019-05-26T03:13:15.731Z,24.50
2019-05-26T03:18:20.770Z,25.70
2019-05-26T03:23:25.837Z,24.20
2019-05-26T03:28:30.969Z,23.70
2019-05-26T03:33:36.133Z,25.20
2019-05-26T03:38:41.186Z,24.30
2019-05-26T03:43:46.229Z,22.90
2019-05-26T03:48:51.291Z,22.80
2019-05-26T03:53:56.333Z,22.33
2019-05-26T03:59:01.373Z,23.40
2019-05-26T04:04:06.425Z,23.30
2019-05-26T04:09:11.480Z,23.85
2019-05-26T04:14:16.529Z,22.80
2019-05-26T04:19:21.559Z,22.50
2019-05-26T04:25:10.744Z,22.00
2019-05-26T04:30:15.813Z,21.00
2019-05-26T04:35:20.845Z,21.75
2019-05-26T04:40:27.801Z,21.90
2019-05-26T04:45:32.797Z,21.05
2019-05-26T04:50:37.836Z,22.60
2019-05-26T04:55:42.877Z,22.40
2019-05-26T05:00:47.933Z,21.80
2019-05-26T05:05:52.997Z,21.40
2019-05-26T05:10:58.039Z,21.75
2019-05-26T05:16:03.087Z,22.50
2019-05-26T05:21:08.147Z,22.40
2019-05-26T05:26:13.183Z,20.90
2019-05-26T05:31:18.222Z,21.60
2019-05-26T05:36:23.274Z,20.25
2019-05-26T05:41:28.345Z,21.10
2019-05-26T05:46:33.567Z,21.10
2019-05-26T05:51:39.346Z,21.20
2019-05-26T05:56:44.406Z,21.50
2019-05-26T06:01:49.457Z,21.20
2019-05-26T06:06:54.511Z,20.10
2019-05-26T06:11:59.556Z,20.30
2019-05-26T06:17:04.587Z,21.10
2019-05-26T06:22:09.665Z,22.10
2019-05-26T06:27:14.732Z,21.70
2019-05-26T06:32:19.865Z,21.50
2019-05-26T06:37:24.909Z,21.15
2019-05-26T06:42:29.955Z,21.00
2019-05-26T06:47:35.112Z,22.00
2019-05-26T06:52:40.175Z,22.30
2019-05-26T06:57:45.175Z,21.80
2019-05-26T07:02:50.267Z,21.50
2019-05-26T07:07:55.311Z,22.00
2019-05-26T07:13:00.348Z,22.20
2019-05-26T07:18:05.424Z,21.15
2019-05-26T07:23:10.806Z,21.80
2019-05-26T07:28:16.120Z,22.20
2019-05-26T07:33:21.272Z,22.10
2019-05-26T07:38:26.262Z,20.90
2019-05-26T07:43:31.292Z,21.20
2019-05-26T07:48:36.517Z,19.60
2019-05-26T07:53:41.565Z,20.40
2019-05-26T07:58:46.623Z,21.00
2019-05-26T08:03:51.767Z,20.80
2019-05-26T08:08:56.817Z,20.20
2019-05-26T08:14:01.967Z,19.40
2019-05-26T08:19:07.008Z,20.30
2019-05-26T08:24:12.058Z,19.70
2019-05-26T08:29:17.118Z,19.50
2019-05-26T08:34:22.157Z,18.70
2019-05-26T08:39:27.213Z,19.60
2019-05-26T08:44:32.259Z,18.15
2019-05-26T08:49:37.317Z,19.00
2019-05-26T08:54:42.375Z,17.30
2019-05-26T08:59:47.346Z,18.90
2019-05-26T09:04:52.374Z,18.40
2019-05-26T09:09:57.398Z,18.00
2019-05-26T09:15:02.479Z,16.60
2019-05-26T09:20:10.918Z,17.00
2019-05-26T09:25:14.290Z,16.50
2019-05-26T09:30:19.335Z,17.60
2019-05-26T09:35:24.384Z,17.35
2019-05-26T09:40:29.554Z,17.40
2019-05-26T09:45:34.601Z,16.35
2019-05-26T09:50:39.747Z,16.80
2019-05-26T09:55:45.418Z,16.10
2019-05-26T10:00:50.564Z,15.40
2019-05-26T10:05:55.599Z,15.45
2019-05-26T10:11:01.391Z,15.00
2019-05-26T10:16:06.437Z,16.60
2019-05-26T10:21:11.493Z,16.35
2019-05-26T10:26:35.991Z,15.30
2019-05-26T10:31:41.127Z,15.90
2019-05-26T10:36:46.188Z,15.80
2019-05-26T10:41:51.422Z,17.20
2019-05-26T10:46:56.803Z,16.10
2019-05-26T10:52:01.928Z,15.50
2019-05-26T10:57:06.993Z,15.85
2019-05-26T11:02:12.032Z,15.90
2019-05-26T11:07:17.080Z,16.00
2019-05-26T11:12:22.355Z,16.55
2019-05-26T11:17:27.404Z,17.20
2019-05-26T11:22:32.655Z,17.90
2019-05-26T11:27:37.787Z,17.40
2019-05-26T11:32:42.847Z,15.00
2019-05-26T11:37:47.897Z,17.10
2019-05-26T11:42:52.938Z,17.55
2019-05-26T11:47:59.306Z,16.25
2019-05-26T11:53:04.684Z,15.80
2019-05-26T11:58:09.729Z,15.70
2019-05-26T12:03:14.900Z,16.55
2019-05-26T12:08:19.940Z,16.45
2019-05-26T12:13:24.983Z,16.40
2019-05-26T12:18:30.038Z,14.00
2019-05-26T12:23:35.101Z,14.10
2019-05-26T12:28:40.141Z,13.00
2019-05-26T12:33:45.264Z,15.60
2019-05-26T12:38:53.404Z,93.70
2019-05-26T12:43:58.419Z,178.60
2019-05-26T12:49:03.518Z,296.50
2019-05-26T12:54:11.476Z,434.80
2019-05-26T12:59:16.580Z,513.30
2019-05-26T13:04:21.734Z,375.50
2019-05-26T13:09:27.496Z,256.50
2019-05-26T13:14:34.119Z,168.20
2019-05-26T13:19:39.229Z,226.60
2019-05-26T16:28:27.300Z,257.50
2019-05-26T16:33:32.383Z,217.80
2019-05-26T16:38:43.210Z,164.20
2019-05-26T16:43:49.310Z,161.50
2019-05-26T16:48:54.972Z,137.30
2019-05-26T16:54:00.145Z,105.10
2019-05-26T16:59:09.013Z,101.30
2019-05-26T17:04:14.239Z,123.50
2019-05-26T17:09:19.318Z,170.30
2019-05-26T17:14:24.449Z,221.80
2019-05-26T17:19:29.575Z,517.30
2019-05-26T17:24:34.645Z,431.20
2019-05-26T17:29:39.785Z,375.55
2019-05-26T17:34:44.920Z,408.70
2019-05-26T17:39:49.975Z,448.75
2019-05-26T17:44:55.326Z,423.50
2019-05-26T17:50:00.404Z,620.90
2019-05-26T17:55:05.425Z,500.35
2019-05-26T18:00:10.899Z,487.50
2019-05-26T18:05:15.952Z,379.60
2019-05-26T18:10:20.999Z,269.80
2019-05-26T18:15:26.037Z,172.67
2019-05-26T18:20:31.107Z,105.80
2019-05-26T18:25:36.130Z,71.40
2019-05-26T18:30:41.186Z,56.85
2019-05-26T18:35:46.242Z,38.90
2019-05-26T18:40:51.299Z,29.45
2019-05-26T18:45:56.348Z,25.90
2019-05-26T18:51:01.393Z,23.85
2019-05-26T18:56:06.442Z,22.05
2019-05-26T19:01:11.494Z,21.50
2019-05-26T19:06:24.544Z,19.10
2019-05-26T19:11:27.335Z,26.70
2019-05-26T19:16:32.379Z,517.50
2019-05-26T19:21:37.405Z,306.65
2019-05-26T19:26:42.464Z,275.80
2019-05-26T19:31:47.866Z,267.45
2019-05-26T19:36:52.891Z,598.35
2019-05-26T19:41:57.924Z,663.20
2019-05-26T19:47:03.068Z,605.55
2019-05-26T19:52:08.126Z,538.40
2019-05-26T19:57:13.283Z,509.75
2019-05-26T20:02:19.083Z,556.30
2019-05-26T20:07:24.414Z,694.65
2019-05-26T20:12:29.865Z,642.45
2019-05-26T20:17:35.022Z,669.55
2019-05-26T20:22:40.075Z,607.60
2019-05-26T20:27:45.110Z,533.00
2019-05-26T20:32:50.172Z,447.70
2019-05-26T20:37:55.229Z,457.80
2019-05-26T20:43:00.278Z,492.60
2019-05-26T20:48:05.327Z,646.05
2019-05-26T20:53:10.370Z,645.50
2019-05-26T20:58:15.420Z,478.90
2019-05-26T21:03:20.460Z,669.90
2019-05-26T21:08:28.992Z,688.47
2019-05-26T21:13:34.036Z,756.20
2019-05-26T21:18:39.191Z,625.70
2019-05-26T21:23:44.237Z,592.80
2019-05-26T21:28:49.276Z,570.30
2019-05-26T21:33:54.338Z,562.20
2019-05-26T21:38:59.388Z,508.65
2019-05-26T21:44:04.442Z,627.85
2019-05-26T21:49:09.483Z,604.45
2019-05-26T21:54:14.533Z,665.80
2019-05-26T21:59:19.558Z,760.80
2019-05-26T22:04:31.960Z,590.50
2019-05-26T22:09:38.286Z,615.60
2019-05-26T22:14:43.438Z,568.55
2019-05-26T22:19:48.488Z,645.60
2019-05-26T22:24:55.158Z,647.80
2019-05-26T22:30:21.807Z,662.60
2019-05-26T22:35:27.071Z,628.40
2019-05-26T22:40:32.136Z,657.80
2019-05-26T22:45:37.160Z,602.10
2019-05-26T22:50:42.216Z,523.13
2019-05-26T22:55:51.999Z,542.90
2019-05-26T23:00:57.654Z,642.90
2019-05-26T23:06:03.065Z,694.05
2019-05-26T23:11:13.021Z,662.45
2019-05-26T23:16:18.261Z,767.50
2019-05-26T23:21:26.262Z,740.20
2019-05-26T23:26:31.403Z,775.60
2019-05-26T23:31:36.463Z,761.80
2019-05-26T23:36:43.129Z,697.15
2019-05-26T23:41:48.292Z,716.60
2019-05-26T23:46:54.963Z,667.70
